Time;durP1;ratioP1;P1;durP2;ratioP2;P2;SDS_P1;SDS_P2;PMS_P1;PMS_P2;Temp;Humidity;BMP_temperature;BMP_pressure;BME280_temperature;BME280_humidity;BME280_pressure;Samples;Min_cycle;Max_cycle;Signal;HPM_P1;HPM_P2
2023/12/21 00:01:49;;;;;;;1.90;1.10;;;14.50;99.80;;;;;;5088772;28;20193;-88
2023/12/21 00:04:18;;;;;;;1.27;1.10;;;14.50;99.80;;;;;;5091872;28;20172;-88
2023/12/21 00:06:46;;;;;;;2.53;0.97;;;14.50;99.80;;;;;;5076380;28;20624;-88
2023/12/21 00:09:15;;;;;;;1.10;1.00;;;14.50;99.80;;;;;;5076702;28;20168;-88
2023/12/21 00:11:41;;;;;;;0.90;0.90;;;14.50;99.80;;;;;;5087136;28;20566;-88
2023/12/21 00:14:10;;;;;;;1.53;1.00;;;14.50;99.80;;;;;;5090276;28;20185;-88
2023/12/21 00:16:38;;;;;;;1.60;1.10;;;14.50;99.80;;;;;;5084758;28;20237;-89
2023/12/21 00:19:07;;;;;;;1.37;1.03;;;14.50;99.80;;;;;;5078606;28;20589;-88
2023/12/21 00:21:36;;;;;;;1.33;1.10;;;14.50;99.80;;;;;;5087369;28;20479;-88
2023/12/21 00:24:02;;;;;;;1.13;0.97;;;14.50;99.80;;;;;;5078782;28;20346;-88
2023/12/21 00:26:31;;;;;;;2.13;1.00;;;14.50;99.80;;;;;;5083965;28;20170;-88
2023/12/21 00:28:57;;;;;;;1.10;1.00;;;14.50;99.80;;;;;;5096787;28;20167;-88
2023/12/21 00:31:25;;;;;;;1.30;0.90;;;14.50;99.80;;;;;;5084976;28;20181;-88
2023/12/21 00:33:54;;;;;;;1.20;1.03;;;14.50;99.80;;;;;;5096883;28;20346;-88
2023/12/21 00:36:23;;;;;;;1.23;1.00;;;14.50;99.80;;;;;;5087891;28;20453;-88
2023/12/21 00:38:48;;;;;;;1.20;0.90;;;14.50;99.80;;;;;;5077004;28;20222;-88
2023/12/21 00:41:14;;;;;;;0.83;0.83;;;14.50;99.80;;;;;;5089601;28;20485;-88
2023/12/21 00:43:40;;;;;;;1.83;1.20;;;14.50;99.80;;;;;;5095704;28;20174;-89
2023/12/21 00:46:09;;;;;;;1.37;0.87;;;14.50;99.80;;;;;;5097692;28;20172;-89
2023/12/21 00:48:37;;;;;;;1.00;0.90;;;14.50;99.80;;;;;;5076687;28;20624;-89
2023/12/21 00:51:03;;;;;;;1.07;0.90;;;14.50;99.80;;;;;;5091143;28;20510;-88
2023/12/21 00:53:32;;;;;;;1.00;0.90;;;14.50;99.80;;;;;;5097229;28;20174;-89
2023/12/21 00:56:00;;;;;;;1.00;0.90;;;14.50;99.80;;;;;;5088936;28;20176;-89
2023/12/21 00:58:26;;;;;;;1.17;0.93;;;14.50;99.80;;;;;;5091956;28;20196;-89
2023/12/21 01:00:52;;;;;;;1.13;1.00;;;14.50;99.90;;;;;;5092332;28;20175;-89
2023/12/21 01:03:21;;;;;;;1.40;0.90;;;14.50;99.80;;;;;;5099735;28;20258;-90
2023/12/21 01:05:46;;;;;;;1.07;0.90;;;14.50;99.80;;;;;;5103987;28;20178;-90
2023/12/21 01:08:15;;;;;;;1.37;1.00;;;14.50;99.80;;;;;;5107647;28;20336;-90
2023/12/21 01:10:44;;;;;;;1.03;0.93;;;14.50;99.80;;;;;;5103469;28;20175;-89
2023/12/21 01:13:10;;;;;;;1.10;0.80;;;14.50;99.80;;;;;;5093028;28;20174;-89
2023/12/21 01:15:36;;;;;;;0.97;0.90;;;14.50;99.80;;;;;;5098913;28;20179;-90
2023/12/21 01:18:05;;;;;;;0.80;0.80;;;14.50;99.80;;;;;;5096716;28;20183;-90
2023/12/21 01:20:30;;;;;;;0.80;0.80;;;14.50;99.80;;;;;;5095846;28;20241;-90
2023/12/21 01:23:03;;;;;;;1.07;0.90;;;14.50;99.80;;;;;;5089562;28;20173;-90
2023/12/21 01:25:31;;;;;;;1.20;1.10;;;14.50;99.80;;;;;;5074270;28;20183;-90
2023/12/21 01:27:59;;;;;;;1.40;0.93;;;14.50;99.80;;;;;;5090110;28;20415;-90
2023/12/21 01:30:28;;;;;;;1.63;1.00;;;14.50;99.80;;;;;;5095199;28;20171;-91
2023/12/21 01:32:57;;;;;;;0.70;0.70;;;14.50;99.80;;;;;;5080552;28;20476;-88
2023/12/21 01:35:25;;;;;;;0.80;0.80;;;14.50;99.80;;;;;;5095459;28;20636;-88
2023/12/21 01:37:54;;;;;;;1.10;1.00;;;14.50;99.80;;;;;;5089809;28;20162;-88
2023/12/21 01:40:23;;;;;;;1.00;0.90;;;14.50;99.80;;;;;;5074327;28;20342;-91
2023/12/21 01:42:52;;;;;;;0.80;0.80;;;14.50;99.80;;;;;;5084698;28;20169;-90
2023/12/21 01:45:20;;;;;;;1.27;0.97;;;14.50;99.90;;;;;;5077412;28;20192;-90
2023/12/21 01:47:46;;;;;;;0.87;0.70;;;14.50;99.90;;;;;;5084359;28;20263;-90
2023/12/21 01:50:12;;;;;;;1.03;0.90;;;14.50;99.90;;;;;;5080484;28;20199;-89
2023/12/21 01:52:45;;;;;;;0.80;0.80;;;14.50;99.90;;;;;;5080146;28;20181;-90
2023/12/21 01:55:12;;;;;;;1.10;0.90;;;14.50;99.90;;;;;;5090307;28;20278;-90
2023/12/21 01:57:38;;;;;;;1.60;0.73;;;14.50;99.90;;;;;;5091448;28;20193;-89
2023/12/21 02:00:08;;;;;;;1.00;0.83;;;14.50;99.90;;;;;;5084197;28;20274;-89
2023/12/21 02:02:40;;;;;;;0.80;0.80;;;14.50;99.90;;;;;;5078182;28;20270;-89
2023/12/21 02:05:09;;;;;;;0.70;0.70;;;14.50;99.90;;;;;;5085591;28;20455;-89
2023/12/21 02:07:35;;;;;;;0.77;0.60;;;14.50;99.90;;;;;;5076602;28;20476;-89
2023/12/21 02:10:01;;;;;;;1.20;1.00;;;14.50;99.90;;;;;;5096588;28;20188;-89
2023/12/21 02:12:30;;;;;;;1.13;0.80;;;14.50;99.90;;;;;;5094341;28;20209;-89
2023/12/21 02:14:59;;;;;;;1.00;0.83;;;14.50;99.90;;;;;;5096035;28;20211;-89
2023/12/21 02:17:29;;;;;;;1.17;0.90;;;14.50;99.90;;;;;;5095670;28;20206;-90
2023/12/21 02:19:55;;;;;;;1.33;0.90;;;14.50;99.90;;;;;;5084638;28;20209;-90
2023/12/21 02:22:29;;;;;;;0.90;0.80;;;14.50;99.90;;;;;;5073643;28;20207;-90
2023/12/21 02:24:56;;;;;;;0.80;0.80;;;14.50;99.90;;;;;;5092919;28;20171;-90
2023/12/21 02:27:24;;;;;;;1.30;0.83;;;14.50;99.90;;;;;;5093033;28;20166;-90
2023/12/21 02:29:53;;;;;;;0.90;0.73;;;14.50;99.90;;;;;;5080418;28;20462;-89
2023/12/21 02:32:19;;;;;;;0.70;0.70;;;14.50;99.90;;;;;;5094172;28;20176;-89
2023/12/21 02:34:49;;;;;;;0.70;0.70;;;14.50;99.90;;;;;;5082374;28;20308;-89
2023/12/21 02:37:14;;;;;;;0.90;0.73;;;14.50;99.90;;;;;;5092423;28;20204;-89
2023/12/21 02:39:40;;;;;;;0.70;0.70;;;14.50;99.90;;;;;;5080646;28;20491;-89
2023/12/21 02:42:15;;;;;;;0.93;0.90;;;14.50;99.90;;;;;;5090210;28;20174;-89
2023/12/21 02:44:44;;;;;;;0.80;0.80;;;14.50;99.90;;;;;;5082516;28;20171;-89
2023/12/21 02:47:10;;;;;;;1.50;1.10;;;14.50;99.90;;;;;;5088088;28;20171;-90
2023/12/21 02:49:38;;;;;;;0.90;0.90;;;14.50;99.90;;;;;;5092306;28;20191;-89
2023/12/21 02:52:07;;;;;;;1.07;0.80;;;14.50;99.90;;;;;;5078031;28;20184;-90
2023/12/21 02:54:36;;;;;;;0.90;0.80;;;14.50;99.90;;;;;;5080931;28;20174;-89
2023/12/21 02:57:05;;;;;;;1.33;0.90;;;14.50;99.90;;;;;;5078929;28;20213;-90
2023/12/21 02:59:30;;;;;;;0.67;0.67;;;14.50;99.90;;;;;;5079390;28;20335;-90
2023/12/21 03:01:59;;;;;;;0.83;0.83;;;14.50;99.90;;;;;;5082790;28;20236;-89
2023/12/21 03:04:25;;;;;;;4.93;0.80;;;14.50;99.90;;;;;;5074595;28;20176;-90
2023/12/21 03:06:50;;;;;;;0.80;0.80;;;14.50;99.90;;;;;;5081248;28;20176;-89
2023/12/21 03:09:19;;;;;;;0.90;0.80;;;14.50;99.90;;;;;;5093358;28;20202;-90
2023/12/21 03:11:45;;;;;;;0.80;0.80;;;14.50;99.90;;;;;;5081836;28;20189;-90
2023/12/21 03:14:14;;;;;;;0.90;0.60;;;14.50;99.90;;;;;;5093683;28;20183;-90
2023/12/21 03:16:42;;;;;;;0.80;0.80;;;14.50;99.90;;;;;;5081052;28;20175;-89
2023/12/21 03:19:12;;;;;;;0.90;0.73;;;14.50;99.90;;;;;;5095090;28;20237;-89
2023/12/21 03:21:38;;;;;;;0.73;0.70;;;14.50;99.90;;;;;;5089827;28;20178;-89
2023/12/21 03:24:04;;;;;;;1.30;0.90;;;14.50;99.90;;;;;;5095330;28;20185;-89
2023/12/21 03:26:32;;;;;;;1.00;0.90;;;14.50;99.90;;;;;;5095231;28;20192;-89
2023/12/21 03:28:58;;;;;;;1.33;0.70;;;14.50;99.90;;;;;;5074903;28;20193;-89
2023/12/21 03:31:27;;;;;;;0.73;0.73;;;14.50;99.90;;;;;;5078424;28;20191;-90
2023/12/21 03:33:55;;;;;;;2.00;0.90;;;14.50;99.90;;;;;;5091491;28;20196;-89
2023/12/21 03:36:21;;;;;;;2.00;0.93;;;14.50;99.90;;;;;;5093101;28;20478;-89
2023/12/21 03:38:47;;;;;;;0.90;0.90;;;14.40;99.90;;;;;;5078164;28;20474;-89
2023/12/21 03:41:13;;;;;;;0.70;0.70;;;14.50;99.90;;;;;;5077476;28;20175;-89
2023/12/21 03:43:39;;;;;;;0.70;0.70;;;14.50;99.90;;;;;;5087485;28;20180;-89
2023/12/21 03:46:09;;;;;;;0.70;0.70;;;14.50;99.90;;;;;;5091909;28;20512;-89
2023/12/21 03:48:34;;;;;;;0.70;0.70;;;14.50;99.90;;;;;;5084379;28;20191;-89
2023/12/21 03:51:00;;;;;;;0.87;0.70;;;14.50;99.90;;;;;;5084519;28;20200;-89
2023/12/21 03:53:29;;;;;;;1.07;0.70;;;14.50;99.90;;;;;;5086189;28;20203;-89
2023/12/21 03:55:57;;;;;;;1.67;0.70;;;14.50;99.90;;;;;;5098175;28;20510;-90
2023/12/21 03:58:26;;;;;;;0.80;0.63;;;14.40;99.90;;;;;;5086526;28;20259;-89
2023/12/21 04:00:54;;;;;;;1.00;0.90;;;14.50;99.90;;;;;;5099132;28;20163;-89
2023/12/21 04:03:23;;;;;;;0.80;0.60;;;14.40;99.90;;;;;;5096628;28;20210;-90
2023/12/21 04:05:53;;;;;;;0.60;0.60;;;14.50;99.90;;;;;;5096928;28;20179;-90
2023/12/21 04:08:22;;;;;;;0.47;0.47;;;14.50;99.90;;;;;;5079435;28;20205;-89
2023/12/21 04:10:51;;;;;;;0.50;0.50;;;14.50;99.90;;;;;;5073931;28;20229;-89
2023/12/21 04:13:16;;;;;;;0.67;0.67;;;14.50;99.90;;;;;;5088583;28;20576;-89
2023/12/21 04:15:45;;;;;;;0.70;0.70;;;14.40;99.90;;;;;;5095642;28;20175;-89
2023/12/21 04:18:13;;;;;;;0.77;0.77;;;14.40;99.90;;;;;;5083837;28;20177;-90
2023/12/21 04:20:39;;;;;;;0.60;0.60;;;14.40;99.90;;;;;;5096335;28;20330;-89
2023/12/21 04:23:05;;;;;;;0.60;0.60;;;14.50;99.90;;;;;;5085854;28;20271;-89
2023/12/21 04:25:31;;;;;;;0.57;0.50;;;14.40;99.90;;;;;;5093172;28;20864;-89
2023/12/21 04:27:59;;;;;;;0.90;0.60;;;14.40;99.90;;;;;;5088347;28;20271;-89
2023/12/21 04:30:28;;;;;;;0.63;0.63;;;14.40;99.90;;;;;;5089746;28;20186;-89
2023/12/21 04:32:56;;;;;;;0.60;0.60;;;14.40;99.90;;;;;;5090265;28;20187;-89
2023/12/21 04:35:25;;;;;;;0.77;0.77;;;14.40;99.90;;;;;;5088030;28;20679;-90
2023/12/21 04:37:53;;;;;;;0.63;0.60;;;14.40;99.90;;;;;;5093204;28;20201;-89
2023/12/21 04:40:21;;;;;;;0.60;0.60;;;14.40;99.90;;;;;;5083696;28;20541;-90
2023/12/21 04:42:55;;;;;;;0.93;0.73;;;14.40;99.90;;;;;;5076808;28;20508;-90
2023/12/21 04:45:24;;;;;;;0.70;0.70;;;14.40;99.90;;;;;;5086183;28;20194;-89
2023/12/21 04:47:52;;;;;;;0.70;0.70;;;14.40;99.90;;;;;;5094871;28;20172;-89
2023/12/21 04:50:18;;;;;;;0.63;0.63;;;14.40;99.90;;;;;;5084974;28;20175;-89
2023/12/21 04:52:47;;;;;;;0.47;0.47;;;14.50;99.90;;;;;;5093221;28;20470;-89
2023/12/21 04:55:14;;;;;;;0.50;0.50;;;14.60;99.90;;;;;;5082933;28;20191;-90
2023/12/21 04:57:43;;;;;;;0.60;0.60;;;14.80;99.80;;;;;;5093108;28;20613;-89
2023/12/21 05:00:15;;;;;;;0.50;0.50;;;15.10;99.00;;;;;;5090472;28;20576;-89
2023/12/21 05:02:41;;;;;;;1.00;0.80;;;15.50;98.10;;;;;;5093109;28;20208;-89
2023/12/21 05:05:10;;;;;;;0.60;0.60;;;15.80;97.30;;;;;;5076660;28;20179;-89
2023/12/21 05:07:37;;;;;;;0.60;0.60;;;16.20;96.50;;;;;;5071768;28;20269;-90
2023/12/21 05:10:03;;;;;;;0.67;0.67;;;16.60;95.00;;;;;;5085706;28;20318;-90
2023/12/21 05:12:32;;;;;;;1.63;0.50;;;16.90;94.00;;;;;;5092937;28;20233;-90
2023/12/21 05:15:00;;;;;;;0.50;0.50;;;17.00;93.50;;;;;;5081478;28;20248;-89
2023/12/21 05:17:29;;;;;;;1.17;0.60;;;17.00;93.30;;;;;;5091669;28;20293;-90
2023/12/21 05:19:54;;;;;;;0.70;0.60;;;16.90;93.60;;;;;;5089546;28;20207;-90
2023/12/21 05:22:20;;;;;;;0.63;0.60;;;16.80;93.80;;;;;;5077592;28;20470;-90
2023/12/21 05:24:49;;;;;;;0.63;0.43;;;16.60;94.10;;;;;;5079063;28;20165;-90
2023/12/21 05:27:17;;;;;;;0.50;0.50;;;16.50;94.30;;;;;;5078012;28;20164;-90
2023/12/21 05:29:46;;;;;;;0.53;0.53;;;16.40;94.60;;;;;;5077470;28;20173;-90
2023/12/21 05:32:15;;;;;;;1.80;0.57;;;16.40;94.70;;;;;;5079866;28;20345;-90
2023/12/21 05:34:43;;;;;;;0.40;0.40;;;16.30;94.80;;;;;;5074990;28;20451;-90
2023/12/21 05:37:12;;;;;;;0.63;0.40;;;16.30;94.80;;;;;;5080207;28;20180;-89
2023/12/21 05:39:40;;;;;;;0.43;0.40;;;16.40;94.70;;;;;;5073584;28;20285;-90
2023/12/21 05:42:09;;;;;;;0.53;0.50;;;16.30;94.70;;;;;;5079043;28;20168;-89
2023/12/21 05:44:38;;;;;;;0.50;0.50;;;16.30;94.80;;;;;;5089109;28;20411;-89
2023/12/21 05:47:04;;;;;;;0.60;0.60;;;16.30;94.90;;;;;;5089632;28;20171;-89
2023/12/21 05:49:32;;;;;;;0.60;0.60;;;16.20;95.10;;;;;;5090349;28;20435;-90
2023/12/21 05:52:04;;;;;;;0.67;0.50;;;16.10;95.20;;;;;;5082095;28;20173;-90
2023/12/21 05:54:33;;;;;;;0.47;0.47;;;16.00;95.50;;;;;;5070576;28;20217;-90
2023/12/21 05:57:02;;;;;;;0.60;0.60;;;16.00;95.70;;;;;;5083372;28;20187;-90
2023/12/21 05:59:31;;;;;;;0.50;0.50;;;15.90;96.00;;;;;;5068672;28;20195;-89
2023/12/21 06:02:09;;;;;;;0.50;0.50;;;15.80;96.20;;;;;;5091298;28;20272;-89
2023/12/21 06:04:43;;;;;;;0.70;0.70;;;15.70;96.40;;;;;;5089585;28;20591;-89
2023/12/21 06:07:09;;;;;;;0.57;0.50;;;15.60;96.60;;;;;;5092000;28;20230;-89
2023/12/21 06:09:34;;;;;;;0.87;0.70;;;15.60;96.90;;;;;;5089453;28;20176;-89
2023/12/21 06:12:01;;;;;;;0.67;0.57;;;15.50;97.00;;;;;;5077602;28;20240;-90
2023/12/21 06:14:29;;;;;;;0.40;0.40;;;15.40;97.20;;;;;;5087539;28;20575;-89
2023/12/21 06:16:55;;;;;;;0.50;0.50;;;15.40;97.40;;;;;;5078791;28;20190;-89
2023/12/21 06:19:24;;;;;;;0.43;0.43;;;15.30;97.60;;;;;;5087956;28;20202;-89
2023/12/21 06:21:50;;;;;;;0.60;0.60;;;15.30;97.80;;;;;;5081522;28;20183;-89
2023/12/21 06:24:16;;;;;;;0.47;0.47;;;15.20;97.90;;;;;;5084706;28;20168;-89
2023/12/21 06:26:45;;;;;;;0.57;0.57;;;15.20;98.10;;;;;;5089332;28;20495;-90
2023/12/21 06:29:17;;;;;;;0.40;0.40;;;15.10;98.30;;;;;;5076582;28;20171;-90
2023/12/21 06:31:42;;;;;;;0.60;0.60;;;15.00;98.60;;;;;;5073311;28;20171;-90
2023/12/21 06:34:08;;;;;;;0.60;0.60;;;14.90;99.10;;;;;;5076940;28;20318;-90
2023/12/21 06:36:34;;;;;;;0.67;0.60;;;14.90;99.00;;;;;;5074644;28;20193;-90
2023/12/21 06:38:59;;;;;;;0.50;0.50;;;14.90;99.00;;;;;;5090625;28;20445;-90
2023/12/21 06:41:28;;;;;;;0.50;0.50;;;14.90;99.10;;;;;;5089393;28;20182;-90
2023/12/21 06:43:54;;;;;;;0.53;0.53;;;15.00;99.10;;;;;;5076571;28;20719;-90
2023/12/21 06:46:21;;;;;;;0.50;0.50;;;15.00;99.00;;;;;;5091657;28;20178;-90
2023/12/21 06:48:46;;;;;;;1.03;0.57;;;15.10;99.00;;;;;;5082214;28;20556;-90
2023/12/21 06:51:18;;;;;;;1.20;0.67;;;15.10;98.90;;;;;;5070003;28;20182;-90
2023/12/21 06:53:47;;;;;;;0.77;0.70;;;15.10;98.90;;;;;;5084786;28;20247;-89
2023/12/21 06:56:13;;;;;;;0.40;0.40;;;15.10;98.90;;;;;;5090220;28;20176;-89
2023/12/21 06:58:38;;;;;;;0.50;0.50;;;15.10;98.90;;;;;;5076421;28;20208;-89
2023/12/21 07:01:04;;;;;;;0.67;0.53;;;15.10;98.90;;;;;;5087565;28;20201;-89
2023/12/21 07:03:30;;;;;;;0.80;0.70;;;15.10;99.00;;;;;;5077258;28;20171;-90
2023/12/21 07:05:58;;;;;;;0.73;0.70;;;15.00;99.00;;;;;;5083768;28;20220;-90
2023/12/21 07:08:23;;;;;;;0.43;0.43;;;15.00;99.10;;;;;;5078290;28;20460;-90
2023/12/21 07:10:50;;;;;;;0.60;0.60;;;15.00;99.20;;;;;;5079617;28;20579;-90
2023/12/21 07:13:15;;;;;;;1.03;0.60;;;14.90;99.30;;;;;;5079032;28;20450;-89
2023/12/21 07:15:41;;;;;;;0.87;0.70;;;14.90;99.30;;;;;;5080623;28;20548;-90
2023/12/21 07:18:07;;;;;;;1.17;0.60;;;14.80;99.50;;;;;;5082511;28;20624;-89
2023/12/21 07:20:35;;;;;;;0.60;0.60;;;14.80;99.60;;;;;;5076949;28;20274;-89
2023/12/21 07:23:01;;;;;;;0.70;0.70;;;14.80;99.70;;;;;;5069717;28;20545;-89
2023/12/21 07:25:27;;;;;;;1.57;0.60;;;14.80;99.80;;;;;;5075550;28;20176;-90
2023/12/21 07:28:01;;;;;;;1.17;0.90;;;14.70;99.90;;;;;;5085053;28;20255;-90
2023/12/21 07:30:27;;;;;;;0.70;0.60;;;14.70;99.90;;;;;;5073915;28;20184;-89
2023/12/21 07:32:53;;;;;;;1.40;0.50;;;14.70;99.90;;;;;;5085378;28;20310;-90
2023/12/21 07:35:21;;;;;;;1.23;0.80;;;14.60;99.90;;;;;;5078205;28;20193;-89
2023/12/21 07:37:47;;;;;;;0.60;0.60;;;14.60;99.90;;;;;;5066033;28;20261;-89
2023/12/21 07:40:13;;;;;;;1.00;0.57;;;14.60;99.90;;;;;;5078738;28;20277;-89
2023/12/21 07:42:42;;;;;;;1.50;0.87;;;14.60;99.90;;;;;;5084602;28;20508;-89
2023/12/21 07:45:08;;;;;;;0.70;0.70;;;14.60;99.90;;;;;;5081906;28;20191;-89
2023/12/21 07:47:36;;;;;;;1.10;0.73;;;14.60;99.90;;;;;;5064336;28;20222;-89
2023/12/21 07:50:02;;;;;;;1.13;0.70;;;14.60;99.90;;;;;;5074618;28;20277;-90
2023/12/21 07:52:28;;;;;;;1.70;0.80;;;14.60;99.90;;;;;;5085841;28;20270;-90
2023/12/21 07:54:54;;;;;;;1.23;0.70;;;14.60;99.90;;;;;;5077341;28;20189;-90
2023/12/21 07:57:19;;;;;;;0.60;0.60;;;14.60;99.90;;;;;;5080756;28;20249;-90
2023/12/21 07:59:45;;;;;;;1.77;0.70;;;14.60;99.90;;;;;;5079590;28;20206;-89
2023/12/21 08:02:14;;;;;;;0.87;0.70;;;14.60;99.90;;;;;;5077977;28;20326;-90
2023/12/21 08:04:40;;;;;;;0.70;0.70;;;14.70;99.90;;;;;;5086281;28;20497;-90
2023/12/21 08:07:09;;;;;;;0.83;0.70;;;14.70;99.90;;;;;;5086692;28;20166;-90
2023/12/21 08:09:35;;;;;;;1.10;0.70;;;14.70;99.90;;;;;;5086106;28;20190;-90
2023/12/21 08:12:00;;;;;;;0.90;0.70;;;14.70;99.90;;;;;;5073635;28;20225;-90
2023/12/21 08:14:28;;;;;;;1.83;0.80;;;14.70;99.90;;;;;;5085017;28;20205;-90
2023/12/21 08:17:02;;;;;;;1.27;0.73;;;14.70;99.90;;;;;;5071762;28;20574;-90
2023/12/21 08:19:31;;;;;;;1.03;0.80;;;14.70;99.90;;;;;;5083033;28;20254;-90
2023/12/21 08:22:00;;;;;;;1.07;0.60;;;14.70;99.90;;;;;;5084391;28;20171;-90
2023/12/21 08:24:26;;;;;;;0.70;0.70;;;14.70;99.90;;;;;;5091602;28;20188;-90
2023/12/21 08:26:54;;;;;;;0.60;0.60;;;14.70;99.90;;;;;;5070225;28;20185;-90
2023/12/21 08:29:23;;;;;;;0.60;0.60;;;14.60;99.90;;;;;;5085205;28;20195;-90
2023/12/21 08:31:49;;;;;;;1.30;0.80;;;14.60;99.90;;;;;;5070357;28;20583;-90
2023/12/21 08:34:15;;;;;;;3.40;0.80;;;14.60;99.90;;;;;;5084760;28;20227;-90
2023/12/21 08:36:40;;;;;;;1.93;1.00;;;14.60;99.90;;;;;;5076491;28;20221;-90
2023/12/21 08:39:06;;;;;;;1.40;0.70;;;14.60;99.90;;;;;;5084862;28;20210;-90
2023/12/21 08:41:34;;;;;;;0.67;0.67;;;14.60;99.90;;;;;;5081275;28;20460;-90
2023/12/21 08:44:03;;;;;;;1.10;0.80;;;14.60;99.90;;;;;;5084113;28;20174;-90
2023/12/21 08:46:32;;;;;;;1.73;0.80;;;14.60;99.90;;;;;;5082475;28;20290;-89
2023/12/21 08:49:00;;;;;;;0.90;0.80;;;14.60;99.90;;;;;;5081788;28;20174;-88
2023/12/21 08:51:37;;;;;;;1.33;0.80;;;14.60;99.90;;;;;;5087754;28;20398;-88
2023/12/21 08:54:06;;;;;;;0.87;0.60;;;14.60;99.90;;;;;;5088287;28;20182;-88
2023/12/21 08:56:41;;;;;;;1.03;0.70;;;14.50;99.90;;;;;;5086046;28;20440;-88
2023/12/21 08:59:07;;;;;;;3.33;0.90;;;14.50;99.90;;;;;;5073836;28;20228;-88
2023/12/21 09:01:35;;;;;;;0.93;0.77;;;14.50;99.90;;;;;;5070639;28;20290;-88
2023/12/21 09:04:04;;;;;;;1.10;0.90;;;14.50;99.90;;;;;;5075598;28;20205;-88
2023/12/21 09:06:31;;;;;;;0.77;0.70;;;14.50;99.90;;;;;;5070625;28;20225;-88
2023/12/21 09:08:58;;;;;;;0.93;0.70;;;14.50;99.90;;;;;;5087062;28;20175;-89
2023/12/21 09:11:28;;;;;;;1.30;0.70;;;14.50;99.90;;;;;;5084955;28;20168;-89
2023/12/21 09:13:57;;;;;;;1.07;0.60;;;14.50;99.90;;;;;;5075223;28;20168;-89
2023/12/21 09:16:36;;;;;;;;;;;;;;;;;;;;;
2023/12/21 09:19:02;;;;;;;2.63;0.70;;;14.60;99.90;;;;;;5072464;28;20204;-89
2023/12/21 09:21:31;;;;;;;5.30;1.20;;;14.60;99.90;;;;;;5086322;28;20266;-89
2023/12/21 09:23:58;;;;;;;3.67;1.10;;;14.80;99.90;;;;;;5075895;28;20164;-88
2023/12/21 09:26:24;;;;;;;2.80;1.10;;;14.80;99.90;;;;;;5088413;28;20382;-88
2023/12/21 09:28:53;;;;;;;3.27;1.07;;;14.80;99.90;;;;;;5084830;28;20174;-88
2023/12/21 09:31:19;;;;;;;8.40;1.20;;;14.80;99.90;;;;;;5084777;28;20686;-88
2023/12/21 09:33:48;;;;;;;4.53;1.00;;;14.80;99.90;;;;;;5075348;28;20206;-88
2023/12/21 09:36:16;;;;;;;1.77;0.93;;;14.80;99.90;;;;;;5068448;28;20494;-88
2023/12/21 09:38:48;;;;;;;3.13;0.93;;;14.80;99.90;;;;;;5077155;28;20196;-88
2023/12/21 09:41:17;;;;;;;3.60;1.00;;;14.80;99.90;;;;;;5086294;28;20168;-89
2023/12/21 09:43:47;;;;;;;1.57;0.97;;;14.80;99.90;;;;;;5078274;28;20234;-88
2023/12/21 09:46:14;;;;;;;2.73;1.00;;;14.80;99.90;;;;;;5082965;28;20181;-88
2023/12/21 09:48:42;;;;;;;1.90;0.73;;;14.80;99.90;;;;;;5079948;28;20167;-88
2023/12/21 09:51:10;;;;;;;2.70;0.90;;;14.70;99.90;;;;;;5063653;28;20215;-88
2023/12/21 09:53:37;;;;;;;4.27;1.17;;;14.70;99.90;;;;;;5068364;28;20292;-88
2023/12/21 09:56:07;;;;;;;5.77;1.00;;;14.70;99.90;;;;;;5077520;28;20236;-88
2023/12/21 09:58:36;;;;;;;3.37;0.90;;;14.70;99.90;;;;;;5082425;28;20275;-88
2023/12/21 10:01:02;;;;;;;2.17;0.77;;;14.70;99.90;;;;;;5077778;28;20172;-88
2023/12/21 10:03:39;;;;;;;2.20;1.27;;;14.70;99.90;;;;;;5074870;28;20320;-88
2023/12/21 10:06:08;;;;;;;5.10;0.90;;;14.70;99.90;;;;;;5086656;28;20565;-88
2023/12/21 10:08:34;;;;;;;2.30;0.97;;;14.70;99.90;;;;;;5090317;28;20230;-88
2023/12/21 10:11:06;;;;;;;1.97;1.23;;;14.70;99.90;;;;;;5079078;28;20204;-89
2023/12/21 10:13:34;;;;;;;4.93;1.20;;;14.70;99.90;;;;;;5087172;28;20173;-89
2023/12/21 10:16:01;;;;;;;3.00;1.03;;;14.70;99.90;;;;;;5074987;28;20185;-89
2023/12/21 10:18:34;;;;;;;6.47;1.00;;;14.80;99.90;;;;;;5085568;28;20225;-89
2023/12/21 10:21:03;;;;;;;4.63;1.10;;;14.80;99.90;;;;;;5074673;28;20237;-89
2023/12/21 10:23:32;;;;;;;2.97;1.27;;;14.80;99.90;;;;;;5065784;28;20276;-89
2023/12/21 10:26:08;;;;;;;7.10;1.03;;;14.70;99.90;;;;;;5078932;28;20215;-89
2023/12/21 10:28:37;;;;;;;7.23;1.20;;;14.70;99.90;;;;;;5064403;28;20424;-89
2023/12/21 10:31:06;;;;;;;3.13;1.00;;;14.70;99.90;;;;;;5078851;28;20423;-89
2023/12/21 10:33:32;;;;;;;3.60;0.90;;;14.70;99.90;;;;;;5082723;28;20190;-89
2023/12/21 10:35:58;;;;;;;3.07;1.10;;;14.60;99.90;;;;;;5077292;28;20393;-88
2023/12/21 10:38:34;;;;;;;2.93;1.00;;;14.70;99.90;;;;;;5082198;28;20216;-90
2023/12/21 10:41:05;;;;;;;2.17;0.90;;;14.70;99.90;;;;;;5071599;28;20454;-88
2023/12/21 10:43:41;;;;;;;5.30;1.20;;;14.70;99.90;;;;;;5062293;28;20542;-88
2023/12/21 10:46:10;;;;;;;1.57;0.80;;;14.70;99.90;;;;;;5068077;28;20184;-88
2023/12/21 10:48:39;;;;;;;6.00;1.00;;;14.70;99.90;;;;;;5083181;28;20175;-88
2023/12/21 10:51:05;;;;;;;2.83;0.70;;;14.70;99.90;;;;;;5072348;28;20181;-88
2023/12/21 10:53:32;;;;;;;3.33;0.97;;;14.80;99.90;;;;;;5082618;28;20176;-88
2023/12/21 10:56:01;;;;;;;1.47;0.60;;;14.80;99.90;;;;;;5073131;28;20175;-88
2023/12/21 10:58:31;;;;;;;1.00;0.80;;;14.80;99.90;;;;;;5078154;28;20233;-87
2023/12/21 11:00:58;;;;;;;1.33;0.90;;;14.90;99.90;;;;;;5075721;28;20534;-88
2023/12/21 11:03:28;;;;;;;2.27;0.80;;;14.90;99.90;;;;;;5077214;28;20171;-88
2023/12/21 11:05:55;;;;;;;1.40;0.80;;;14.90;99.90;;;;;;5079514;28;20586;-88
2023/12/21 11:08:25;;;;;;;1.67;0.70;;;14.90;99.90;;;;;;5069435;28;20186;-88
2023/12/21 11:10:56;;;;;;;1.63;0.70;;;14.90;99.90;;;;;;5065384;28;20181;-88
2023/12/21 11:13:24;;;;;;;1.30;0.80;;;14.80;99.90;;;;;;5054799;28;20445;-88
2023/12/21 11:15:53;;;;;;;1.10;0.70;;;14.80;99.90;;;;;;5062333;28;20539;-88
2023/12/21 11:18:21;;;;;;;0.50;0.50;;;14.80;99.90;;;;;;5072605;28;20233;-89
2023/12/21 11:21:02;;;;;;;1.97;0.70;;;14.70;99.90;;;;;;5080732;28;20926;-88
2023/12/21 11:23:31;;;;;;;3.87;0.80;;;14.70;99.90;;;;;;5083685;28;20172;-88
2023/12/21 11:26:00;;;;;;;2.00;0.80;;;14.70;99.90;;;;;;5084197;28;20169;-88
2023/12/21 11:28:32;;;;;;;0.70;0.70;;;14.70;99.90;;;;;;5074902;28;20377;-88
2023/12/21 11:31:18;;;;;;;1.50;0.70;;;14.70;99.90;;;;;;5086064;28;20171;-88
2023/12/21 11:33:45;;;;;;;2.90;0.60;;;14.70;99.90;;;;;;5071360;28;20175;-88
2023/12/21 11:36:29;;;;;;;1.40;0.60;;;14.70;99.90;;;;;;5082342;28;20179;-88
2023/12/21 11:39:02;;;;;;;2.37;0.73;;;14.70;99.90;;;;;;5084480;28;20199;-88
2023/12/21 11:41:27;;;;;;;1.87;0.70;;;14.70;99.90;;;;;;5080550;28;20256;-87
2023/12/21 11:44:02;;;;;;;1.73;0.80;;;14.70;99.90;;;;;;5069298;28;20278;-88
2023/12/21 11:46:35;;;;;;;1.37;0.70;;;14.70;99.90;;;;;;5082311;28;20173;-88
2023/12/21 11:49:02;;;;;;;1.10;0.60;;;14.60;99.90;;;;;;5071434;28;20249;-88
2023/12/21 11:51:31;;;;;;;1.60;0.77;;;14.70;99.90;;;;;;5085413;28;20213;-88
2023/12/21 11:54:06;;;;;;;0.90;0.60;;;14.70;99.90;;;;;;5071188;28;20183;-88
2023/12/21 11:56:36;;;;;;;1.40;0.87;;;14.60;99.90;;;;;;5085539;28;20505;-88
2023/12/21 11:59:03;;;;;;;2.10;0.77;;;14.70;99.90;;;;;;5078386;28;20419;-88
2023/12/21 12:01:31;;;;;;;1.10;0.60;;;14.60;99.90;;;;;;5080863;28;20176;-88
2023/12/21 12:04:00;;;;;;;2.30;0.90;;;14.60;99.90;;;;;;5070438;28;20204;-88
2023/12/21 12:06:28;;;;;;;2.17;0.90;;;14.70;99.90;;;;;;5081712;28;20462;-88
2023/12/21 12:08:55;;;;;;;0.63;0.60;;;14.60;99.90;;;;;;5078670;28;20179;-88
2023/12/21 12:11:24;;;;;;;2.83;0.70;;;14.70;99.90;;;;;;5088307;28;20191;-87
2023/12/21 12:13:50;;;;;;;3.23;0.70;;;14.70;99.90;;;;;;5073749;28;20168;-88
2023/12/21 12:16:19;;;;;;;0.90;0.70;;;14.70;99.90;;;;;;5084539;28;20194;-88
2023/12/21 12:18:47;;;;;;;2.60;0.90;;;14.70;99.90;;;;;;5079598;28;20200;-88
2023/12/21 12:21:16;;;;;;;3.37;1.00;;;14.80;99.90;;;;;;5081677;28;20403;-88
2023/12/21 12:23:48;;;;;;;2.27;0.90;;;14.80;99.90;;;;;;5081905;28;20190;-88
2023/12/21 12:26:18;;;;;;;1.60;0.80;;;14.80;99.90;;;;;;5075394;28;20207;-89
2023/12/21 12:28:49;;;;;;;1.40;0.80;;;14.90;99.90;;;;;;5082758;28;20181;-89
2023/12/21 12:31:18;;;;;;;1.67;0.93;;;14.90;99.90;;;;;;5094725;28;20170;-89
2023/12/21 12:33:50;;;;;;;2.00;1.00;;;14.90;99.90;;;;;;5088811;28;20385;-88
2023/12/21 12:36:19;;;;;;;2.57;1.00;;;14.90;99.90;;;;;;5088144;28;20509;-89
2023/12/21 12:38:49;;;;;;;1.30;0.77;;;14.90;99.90;;;;;;5085958;28;20664;-89
2023/12/21 12:41:26;;;;;;;2.67;1.07;;;14.90;99.90;;;;;;5073784;28;20172;-89
2023/12/21 12:43:53;;;;;;;1.03;0.80;;;14.80;99.90;;;;;;5064130;28;20230;-90
2023/12/21 12:46:24;;;;;;;0.97;0.60;;;14.80;99.90;;;;;;5076761;28;20258;-88
2023/12/21 12:48:50;;;;;;;2.60;1.00;;;14.80;99.90;;;;;;5067527;28;20657;-88
2023/12/21 12:51:22;;;;;;;4.47;0.90;;;14.80;99.90;;;;;;5074595;28;20539;-88
2023/12/21 12:53:51;;;;;;;0.73;0.60;;;14.80;99.90;;;;;;5083922;28;20187;-88